Time;durP1;ratioP1;P1;durP2;ratioP2;P2;SDS_P1;SDS_P2;PMS_P1;PMS_P2;Temp;Humidity;BMP_temperature;BMP_pressure;BME280_temperature;BME280_humidity;BME280_pressure;Samples;Min_cycle;Max_cycle;Signal;HPM_P1;HPM_P2
2023/03/05 00:02:19;;;;;;;;;;;;;;;4.96;66.33;100244.13;5004556;28;3962;-85
2023/03/05 00:04:46;;;;;;;;;;;;;;;4.89;66.67;100246.72;5008108;28;3775;-85
2023/03/05 00:07:13;;;;;;;;;;;;;;;4.99;66.29;100244.56;4986640;28;3642;-85
2023/03/05 00:09:39;;;;;;;;;;;;;;;5.00;66.14;100245.41;4984213;28;4088;-84
2023/03/05 00:12:06;;;;;;;;;;;;;;;4.93;66.46;100231.16;5001955;28;3388;-85
2023/03/05 00:14:33;;;;;;;;;;;;;;;4.98;66.33;100234.09;4998834;28;3689;-85
2023/03/05 00:17:00;;;;;;;;;;;;;;;4.89;66.69;100235.22;5006353;28;3679;-85
2023/03/05 00:19:26;;;;;;;;;;;;;;;4.99;66.02;100238.41;5004646;28;3464;-85
2023/03/05 00:21:53;;;;;;;;;;;;;;;4.98;66.28;100236.75;5009135;28;3907;-84
2023/03/05 00:24:19;;;;;;;;;;;;;;;4.98;66.14;100234.91;5008097;28;3826;-85
2023/03/05 00:26:46;;;;;;;;;;;;;;;4.93;66.49;100229.31;5004761;28;3616;-85
2023/03/05 00:29:13;;;;;;;;;;;;;;;5.04;66.06;100232.50;4994846;28;3065;-84
2023/03/05 00:31:39;;;;;;;;;;;;;;;5.01;65.72;100223.03;4994379;28;2809;-86
2023/03/05 00:34:06;;;;;;;;;;;;;;;4.92;66.29;100214.31;4986645;28;3534;-86
2023/03/05 00:36:32;;;;;;;;;;;;;;;4.98;66.35;100218.06;5003557;28;4574;-86
2023/03/05 00:38:59;;;;;;;;;;;;;;;5.00;66.25;100211.53;5003781;28;3557;-85
2023/03/05 00:41:26;;;;;;;;;;;;;;;4.93;66.31;100207.13;5007021;28;2756;-84
2023/03/05 00:43:52;;;;;;;;;;;;;;;5.04;66.04;100203.13;5008283;28;3673;-87
2023/03/05 00:46:19;;;;;;;;;;;;;;;4.97;66.42;100200.38;4988297;28;3665;-84
2023/03/05 00:48:45;;;;;;;;;;;;;;;5.06;65.97;100203.75;5006718;28;3813;-84
2023/03/05 00:51:12;;;;;;;;;;;;;;;4.98;66.32;100199.38;5003236;28;3696;-84
2023/03/05 00:53:38;;;;;;;;;;;;;;;5.05;66.01;100194.91;5008191;28;2442;-84
2023/03/05 00:56:05;;;;;;;;;;;;;;;5.07;65.69;100186.75;5005352;28;2367;-86
2023/03/05 00:58:31;;;;;;;;;;;;;;;5.08;65.72;100191.03;5003039;28;2541;-84
2023/03/05 01:00:59;;;;;;;;;;;;;;;4.97;65.86;100187.03;5010371;28;3469;-86
2023/03/05 01:03:26;;;;;;;;;;;;;;;5.01;65.84;100183.81;5009787;28;2523;-86
2023/03/05 01:05:53;;;;;;;;;;;;;;;5.14;65.16;100179.59;5008205;28;4129;-84
2023/03/05 01:08:19;;;;;;;;;;;;;;;5.01;65.79;100170.47;5004263;28;3644;-84
2023/03/05 01:10:45;;;;;;;;;;;;;;;5.10;65.47;100165.81;5005885;28;3427;-85
2023/03/05 01:13:12;;;;;;;;;;;;;;;5.07;65.40;100170.72;4986647;28;3850;-84
2023/03/05 01:15:39;;;;;;;;;;;;;;;5.10;65.41;100165.81;4986943;28;2387;-85
2023/03/05 01:18:05;;;;;;;;;;;;;;;5.05;65.66;100168.22;5002159;28;3625;-84
2023/03/05 01:20:32;;;;;;;;;;;;;;;5.09;65.50;100168.66;5006500;28;3668;-85
2023/03/05 01:23:00;;;;;;;;;;;;;;;5.07;65.75;100160.88;5003175;28;3167;-86
2023/03/05 01:25:27;;;;;;;;;;;;;;;5.06;65.45;100159.22;4985039;28;2617;-84
2023/03/05 01:27:53;;;;;;;;;;;;;;;5.05;65.69;100152.22;5002580;28;3686;-85
2023/03/05 01:30:20;;;;;;;;;;;;;;;5.10;65.27;100146.31;5001013;28;3622;-85
2023/03/05 01:32:46;;;;;;;;;;;;;;;5.11;65.56;100146.09;5001944;28;2537;-84
2023/03/05 01:35:13;;;;;;;;;;;;;;;5.18;65.21;100144.31;5004077;28;3585;-85
2023/03/05 01:37:39;;;;;;;;;;;;;;;5.15;65.37;100139.38;4998617;28;2759;-86
2023/03/05 01:40:06;;;;;;;;;;;;;;;5.05;65.57;100136.19;5007397;28;3847;-84
2023/03/05 01:42:33;;;;;;;;;;;;;;;5.02;65.83;100128.56;5000416;28;3546;-85
2023/03/05 01:44:59;;;;;;;;;;;;;;;5.10;65.66;100132.97;5006275;28;3239;-84
2023/03/05 01:47:26;;;;;;;;;;;;;;;5.11;65.81;100129.25;4995266;28;2023;-84
2023/03/05 01:49:53;;;;;;;;;;;;;;;5.10;65.66;100133.78;5005961;28;3625;-85
2023/03/05 01:52:19;;;;;;;;;;;;;;;5.09;65.47;100123.28;4989517;28;3697;-84
2023/03/05 01:54:46;;;;;;;;;;;;;;;5.09;65.32;100116.13;5007636;28;3712;-84
2023/03/05 01:57:12;;;;;;;;;;;;;;;5.09;65.72;100121.47;5004189;28;3198;-85
2023/03/05 01:59:39;;;;;;;;;;;;;;;5.06;65.67;100121.84;4984231;28;2698;-84
2023/03/05 02:02:06;;;;;;;;;;;;;;;5.08;65.37;100109.13;5006437;28;3559;-84
2023/03/05 02:04:33;;;;;;;;;;;;;;;5.12;65.00;100115.72;5000048;28;2813;-85
2023/03/05 02:07:00;;;;;;;;;;;;;;;5.21;65.06;100101.22;4995303;28;3528;-84
2023/03/05 02:09:27;;;;;;;;;;;;;;;5.21;64.53;100098.53;5011869;28;3681;-85
2023/03/05 02:11:54;;;;;;;;;;;;;;;5.17;64.45;100102.59;4985382;28;3599;-85
2023/03/05 02:14:21;;;;;;;;;;;;;;;5.16;64.56;100102.81;5003833;28;3695;-84
2023/03/05 02:16:47;;;;;;;;;;;;;;;5.10;64.50;100093.75;5008430;28;3772;-85
2023/03/05 02:19:14;;;;;;;;;;;;;;;5.08;64.60;100100.28;5009628;28;1605;-85
2023/03/05 02:21:40;;;;;;;;;;;;;;;5.10;64.89;100091.06;5008884;28;4207;-86
2023/03/05 02:24:07;;;;;;;;;;;;;;;5.09;65.05;100096.59;5007341;28;3737;-85
2023/03/05 02:26:33;;;;;;;;;;;;;;;5.17;64.76;100091.09;5010158;28;4528;-85
2023/03/05 02:29:00;;;;;;;;;;;;;;;5.11;65.04;100091.88;4984550;28;3587;-85
2023/03/05 02:31:26;;;;;;;;;;;;;;;5.15;64.61;100091.31;4986228;28;2254;-84
2023/03/05 02:33:54;;;;;;;;;;;;;;;5.22;64.35;100089.50;4988375;28;3773;-85
2023/03/05 02:36:21;;;;;;;;;;;;;;;5.16;64.99;100082.28;4972900;28;3609;-85
2023/03/05 02:38:48;;;;;;;;;;;;;;;5.15;65.13;100085.16;4993419;28;2744;-85
2023/03/05 02:41:15;;;;;;;;;;;;;;;5.10;65.32;100085.72;5002260;28;3871;-86
2023/03/05 02:43:41;;;;;;;;;;;;;;;5.09;65.67;100080.56;5005149;28;3509;-85
2023/03/05 02:46:08;;;;;;;;;;;;;;;5.08;65.52;100081.59;4981837;28;3673;-86
2023/03/05 02:48:34;;;;;;;;;;;;;;;5.15;65.09;100077.16;5005419;28;2574;-86
2023/03/05 02:51:01;;;;;;;;;;;;;;;5.17;65.26;100075.09;4983548;28;3213;-85
2023/03/05 02:53:27;;;;;;;;;;;;;;;5.28;64.91;100071.06;5003759;28;3871;-85
2023/03/05 02:55:57;;;;;;;;;;;;;;;5.29;65.10;100062.00;5004213;28;3201;-84
2023/03/05 02:58:23;;;;;;;;;;;;;;;5.28;65.06;100061.19;5005402;28;2913;-85
2023/03/05 03:00:50;;;;;;;;;;;;;;;5.20;64.83;100061.34;5001277;28;2684;-85
2023/03/05 03:03:16;;;;;;;;;;;;;;;5.20;64.90;100066.69;5006761;28;3451;-84
2023/03/05 03:05:43;;;;;;;;;;;;;;;5.30;64.75;100053.00;4985958;28;3117;-84
2023/03/05 03:08:10;;;;;;;;;;;;;;;5.27;64.54;100054.22;5008528;28;3857;-85
2023/03/05 03:10:36;;;;;;;;;;;;;;;5.30;64.59;100045.81;5004357;28;3438;-85
2023/03/05 03:13:03;;;;;;;;;;;;;;;5.26;64.37;100047.19;4989301;28;3966;-85
2023/03/05 03:15:30;;;;;;;;;;;;;;;5.29;64.61;100035.31;5007723;28;3705;-85
2023/03/05 03:17:56;;;;;;;;;;;;;;;5.20;64.93;100038.13;5006838;28;3749;-85
2023/03/05 03:20:23;;;;;;;;;;;;;;;5.16;65.03;100034.22;5009285;28;3846;-85
2023/03/05 03:22:49;;;;;;;;;;;;;;;5.19;65.06;100028.50;5000310;28;3084;-85
2023/03/05 03:25:16;;;;;;;;;;;;;;;5.17;65.23;100027.84;5005648;28;3598;-85
2023/03/05 03:27:42;;;;;;;;;;;;;;;5.21;65.11;100020.28;4986888;28;3677;-85
2023/03/05 03:30:09;;;;;;;;;;;;;;;5.13;65.59;100021.28;5003802;28;3645;-85
2023/03/05 03:32:35;;;;;;;;;;;;;;;5.14;65.59;100014.91;5000969;28;3859;-85
2023/03/05 03:35:02;;;;;;;;;;;;;;;5.11;65.52;100017.97;5007608;28;3914;-85
2023/03/05 03:37:28;;;;;;;;;;;;;;;5.15;65.44;100015.75;5005143;28;3321;-84
2023/03/05 03:39:55;;;;;;;;;;;;;;;5.13;65.50;100013.25;4984192;28;3423;-84
2023/03/05 03:42:22;;;;;;;;;;;;;;;5.24;65.07;100010.03;4991872;28;3626;-84
2023/03/05 03:44:48;;;;;;;;;;;;;;;5.22;65.39;100012.06;5009006;28;3773;-85
2023/03/05 03:47:15;;;;;;;;;;;;;;;5.16;65.54;100007.53;5005070;28;3662;-85
2023/03/05 03:49:41;;;;;;;;;;;;;;;5.22;65.48;100012.06;4990741;28;3693;-85
2023/03/05 03:52:09;;;;;;;;;;;;;;;5.21;65.26;100020.28;5005606;28;3315;-85
2023/03/05 03:54:35;;;;;;;;;;;;;;;5.30;64.91;100016.44;5005711;28;3303;-84
2023/03/05 03:57:02;;;;;;;;;;;;;;;5.33;64.85;100013.38;5007834;28;3691;-84
2023/03/05 03:59:29;;;;;;;;;;;;;;;5.30;65.07;100013.75;5008991;28;3793;-85
2023/03/05 04:01:55;;;;;;;;;;;;;;;5.19;65.35;100007.13;5006633;28;3619;-85
2023/03/05 04:04:22;;;;;;;;;;;;;;;5.24;65.10;100002.03;4991971;28;3752;-85
2023/03/05 04:06:48;;;;;;;;;;;;;;;5.18;65.44;99996.66;5009508;28;1223;-85
2023/03/05 04:09:15;;;;;;;;;;;;;;;5.18;65.52;100005.50;5008927;28;3732;-85
2023/03/05 04:11:41;;;;;;;;;;;;;;;5.22;65.38;100008.59;5010294;28;3818;-85
2023/03/05 04:14:33;;;;;;;;;;;;;;;5.27;65.22;100008.81;5007145;28;3814;-85
2023/03/05 04:17:25;;;;;;;;;;;;;;;5.33;65.04;100004.53;5014745;28;3699;-86
2023/03/05 04:20:17;;;;;;;;;;;;;;;5.31;65.15;100009.25;5010319;28;4431;-85
2023/03/05 04:23:09;;;;;;;;;;;;;;;5.23;65.53;100002.22;5014894;28;4538;-82
2023/03/05 04:26:01;;;;;;;;;;;;;;;5.28;65.25;99997.09;5012830;28;3802;-86
2023/03/05 04:28:53;;;;;;;;;;;;;;;5.33;65.05;99996.53;5016126;28;2263;-85
2023/03/05 04:31:44;;;;;;;;;;;;;;;5.33;64.84;99996.53;5015058;28;3761;-84
2023/03/05 04:34:36;;;;;;;;;;;;;;;5.28;65.16;99991.75;5011671;28;3859;-83
2023/03/05 04:37:28;;;;;;;;;;;;;;;5.25;65.32;99994.84;5007186;28;3891;-85
2023/03/05 04:40:20;;;;;;;;;;;;;;;5.38;64.81;99991.38;5010701;28;3697;-86
2023/03/05 04:43:12;;;;;;;;;;;;;;;5.30;65.21;99989.72;5005431;28;3637;-84
2023/03/05 04:46:03;;;;;;;;;;;;;;;5.35;64.97;99989.94;5003386;28;3562;-84
2023/03/05 04:48:55;;;;;;;;;;;;;;;5.27;65.43;99995.47;4997169;28;3370;-84
2023/03/05 04:51:48;;;;;;;;;;;;;;;5.34;65.30;99990.97;5000890;28;2702;-84
2023/03/05 04:54:40;;;;;;;;;;;;;;;5.35;65.25;99981.91;4999049;28;3479;-85
2023/03/05 04:57:31;;;;;;;;;;;;;;;5.35;65.38;99981.09;5006294;28;2320;-83
2023/03/05 05:00:23;;;;;;;;;;;;;;;5.38;65.03;99973.53;5000431;28;2409;-86
2023/03/05 05:03:15;;;;;;;;;;;;;;;5.47;64.84;99976.84;4993801;28;2969;-85
2023/03/05 05:06:08;;;;;;;;;;;;;;;5.46;64.92;99976.00;4994704;28;3550;-83
2023/03/05 05:09:00;;;;;;;;;;;;;;;5.49;64.65;99973.97;4996706;28;2298;-84
2023/03/05 05:11:52;;;;;;;;;;;;;;;5.41;65.07;99972.28;4995188;28;3722;-82
2023/03/05 05:14:44;;;;;;;;;;;;;;;5.48;64.82;99962.47;4994737;28;2694;-85
2023/03/05 05:17:36;;;;;;;;;;;;;;;5.39;65.17;99963.69;4995028;28;4406;-84
2023/03/05 05:20:28;;;;;;;;;;;;;;;5.54;64.88;99959.00;4994967;28;3258;-84
2023/03/05 05:23:20;;;;;;;;;;;;;;;5.49;64.75;99957.94;4998998;28;3553;-84
2023/03/05 05:26:13;;;;;;;;;;;;;;;5.51;64.86;99954.06;4995628;28;3591;-85
2023/03/05 05:29:05;;;;;;;;;;;;;;;5.46;65.04;99951.97;4999762;28;2573;-84
2023/03/05 05:31:57;;;;;;;;;;;;;;;5.65;64.47;99958.41;4998240;28;2545;-85
2023/03/05 05:34:49;;;;;;;;;;;;;;;5.49;64.63;99953.41;4996022;28;2698;-83
2023/03/05 05:37:41;;;;;;;;;;;;;;;5.65;64.39;99952.25;5000515;28;3582;-84
2023/03/05 05:40:33;;;;;;;;;;;;;;;5.52;64.87;99957.53;4997866;28;2422;-84
2023/03/05 05:43:25;;;;;;;;;;;;;;;5.53;64.70;99948.50;4993308;28;3547;-85
2023/03/05 05:46:17;;;;;;;;;;;;;;;5.51;65.13;99950.56;4994813;28;2646;-83
2023/03/05 05:49:10;;;;;;;;;;;;;;;5.54;64.84;99934.13;4994173;28;3293;-83
2023/03/05 05:52:01;;;;;;;;;;;;;;;5.67;64.41;99932.28;4997724;28;2732;-83
2023/03/05 05:54:53;;;;;;;;;;;;;;;5.55;64.75;99935.78;4996089;28;2612;-85
2023/03/05 05:57:45;;;;;;;;;;;;;;;5.71;64.21;99930.06;4995651;28;2430;-85
2023/03/05 06:00:37;;;;;;;;;;;;;;;5.61;64.39;99933.09;4994037;28;3267;-84
2023/03/05 06:03:29;;;;;;;;;;;;;;;5.63;64.57;99935.59;4994291;28;3412;-84
2023/03/05 06:06:21;;;;;;;;;;;;;;;5.55;64.98;99941.13;4997119;28;2830;-82
2023/03/05 06:09:13;;;;;;;;;;;;;;;5.72;64.48;99930.88;4998925;28;3432;-83
2023/03/05 06:12:05;;;;;;;;;;;;;;;5.59;64.62;99929.84;4994751;28;2584;-82
2023/03/05 06:14:57;;;;;;;;;;;;;;;5.74;64.13;99937.69;4992300;28;3256;-83
2023/03/05 06:17:49;;;;;;;;;;;;;;;5.58;64.80;99938.03;4993050;28;4356;-84
2023/03/05 06:20:40;;;;;;;;;;;;;;;5.71;64.41;99932.75;4993547;28;3404;-85
2023/03/05 06:23:32;;;;;;;;;;;;;;;5.74;64.10;99931.50;5009045;28;3831;-84
2023/03/05 06:26:24;;;;;;;;;;;;;;;5.60;64.63;99923.47;5013606;28;3340;-84
2023/03/05 06:29:16;;;;;;;;;;;;;;;5.67;64.52;99928.81;5012852;28;936;-85
2023/03/05 06:32:08;;;;;;;;;;;;;;;5.69;64.31;99927.59;5009920;28;3181;-85
2023/03/05 06:35:00;;;;;;;;;;;;;;;5.78;64.09;99925.53;5012335;28;3650;-84
2023/03/05 06:37:52;;;;;;;;;;;;;;;5.73;64.25;99925.31;5012119;28;4481;-84
2023/03/05 06:40:44;;;;;;;;;;;;;;;5.82;63.79;99925.94;5009033;28;3438;-83
2023/03/05 06:43:37;;;;;;;;;;;;;;;5.67;64.41;99926.13;5008377;28;3808;-84
2023/03/05 06:46:29;;;;;;;;;;;;;;;5.78;64.06;99925.53;5011721;28;3702;-83
2023/03/05 06:49:21;;;;;;;;;;;;;;;5.84;64.01;99930.06;5003180;28;3764;-85
2023/03/05 06:52:13;;;;;;;;;;;;;;;5.81;64.07;99933.16;5010756;28;3679;-85
2023/03/05 06:55:05;;;;;;;;;;;;;;;5.90;63.81;99920.41;5009880;28;3724;-83
2023/03/05 06:57:57;;;;;;;;;;;;;;;5.84;63.75;99921.22;4999907;28;3393;-84
2023/03/05 07:00:49;;;;;;;;;;;;;;;5.88;64.02;99911.78;5012119;28;3996;-83
2023/03/05 07:03:41;;;;;;;;;;;;;;;5.76;63.95;99913.41;5006131;28;2505;-83
2023/03/05 07:06:33;;;;;;;;;;;;;;;5.79;63.92;99916.47;5009403;28;2232;-84
2023/03/05 07:09:25;;;;;;;;;;;;;;;5.82;63.96;99899.22;5004571;28;3780;-83
2023/03/05 07:12:17;;;;;;;;;;;;;;;5.80;63.56;99888.75;5006467;28;3455;-84
2023/03/05 07:15:09;;;;;;;;;;;;;;;5.77;63.89;99891.03;5009498;28;3832;-84
2023/03/05 07:18:01;;;;;;;;;;;;;;;5.83;63.62;99901.72;5012099;28;3722;-85
2023/03/05 07:20:54;;;;;;;;;;;;;;;5.87;63.59;99894.09;5002931;28;4029;-85
2023/03/05 07:23:46;;;;;;;;;;;;;;;5.92;63.46;99895.13;5005976;28;3636;-86
2023/03/05 07:26:38;;;;;;;;;;;;;;;5.91;63.47;99898.84;5006986;28;2349;-85
2023/03/05 07:29:30;;;;;;;;;;;;;;;5.92;63.55;99892.47;5007389;28;2501;-85
2023/03/05 07:32:22;;;;;;;;;;;;;;;5.92;63.72;99892.47;5005148;28;2622;-85
2023/03/05 07:35:14;;;;;;;;;;;;;;;6.01;63.12;99889.63;5006910;28;2655;-86
2023/03/05 07:38:06;;;;;;;;;;;;;;;5.96;63.29;99890.22;5004499;28;3720;-87
2023/03/05 07:40:58;;;;;;;;;;;;;;;5.87;63.88;99889.56;5010223;28;3634;-85
2023/03/05 07:43:49;;;;;;;;;;;;;;;6.05;63.05;99885.50;5005464;28;3714;-86
2023/03/05 07:46:41;;;;;;;;;;;;;;;5.94;63.37;99878.91;5009484;28;3586;-86
2023/03/05 07:49:34;;;;;;;;;;;;;;;5.98;63.26;99879.34;5003188;28;3544;-86
2023/03/05 07:52:25;;;;;;;;;;;;;;;6.14;62.98;99877.03;5002669;28;3640;-86
2023/03/05 07:55:16;;;;;;;;;;;;;;;5.98;63.24;99874.00;5003867;28;4180;-86
2023/03/05 07:58:08;;;;;;;;;;;;;;;6.03;62.97;99875.03;5006833;28;3626;-86
2023/03/05 08:01:00;;;;;;;;;;;;;;;6.02;63.11;99876.03;5004602;28;4353;-85
2023/03/05 08:03:52;;;;;;;;;;;;;;;6.06;62.97;99868.41;5007920;28;3496;-87
2023/03/05 08:06:45;;;;;;;;;;;;;;;5.90;63.49;99858.94;5010584;28;3861;-85
2023/03/05 08:09:37;;;;;;;;;;;;;;;6.04;62.92;99851.78;5012963;28;3773;-86
2023/03/05 08:12:28;;;;;;;;;;;;;;;6.06;62.82;99857.72;5009885;28;3673;-86
2023/03/05 08:15:20;;;;;;;;;;;;;;;6.02;63.29;99841.28;5011160;28;3045;-85
2023/03/05 08:18:12;;;;;;;;;;;;;;;6.14;62.59;99838.78;5005544;28;3764;-86
2023/03/05 08:21:04;;;;;;;;;;;;;;;5.96;63.31;99831.41;5004677;28;3649;-85
2023/03/05 08:23:57;;;;;;;;;;;;;;;6.03;62.99;99829.56;5005296;28;3192;-85
2023/03/05 08:26:49;;;;;;;;;;;;;;;6.04;62.76;99825.88;5002132;28;3936;-86
2023/03/05 08:29:41;;;;;;;;;;;;;;;6.10;62.50;99826.88;5010944;28;3914;-86
2023/03/05 08:32:33;;;;;;;;;;;;;;;5.98;63.10;99828.56;5008304;28;3006;-86
2023/03/05 08:35:25;;;;;;;;;;;;;;;6.08;62.90;99829.75;5003778;28;3004;-86
2023/03/05 08:38:17;;;;;;;;;;;;;;;6.09;62.64;99826.06;4998192;28;2548;-86
2023/03/05 08:41:09;;;;;;;;;;;;;;;6.13;62.45;99819.25;4999701;28;3015;-86
2023/03/05 08:44:01;;;;;;;;;;;;;;;6.12;62.64;99824.84;4992420;28;2929;-84
2023/03/05 08:46:53;;;;;;;;;;;;;;;6.19;62.48;99828.31;4995654;28;4133;-86
2023/03/05 08:49:45;;;;;;;;;;;;;;;6.20;62.36;99826.44;5001032;28;3397;-86
2023/03/05 08:52:37;;;;;;;;;;;;;;;6.18;62.48;99825.81;4996241;28;3226;-87
2023/03/05 08:55:29;;;;;;;;;;;;;;;6.11;62.58;99836.53;4995745;28;3583;-86
2023/03/05 08:58:21;;;;;;;;;;;;;;;6.05;62.91;99826.69;5006083;28;3676;-86
2023/03/05 09:01:13;;;;;;;;;;;;;;;6.13;62.91;99827.28;5005045;28;3670;-86
2023/03/05 09:04:05;;;;;;;;;;;;;;;6.20;62.59;99827.25;5013302;28;3384;-85
2023/03/05 09:06:57;;;;;;;;;;;;;;;6.19;62.70;99816.78;5001737;28;2441;-87
2023/03/05 09:09:51;;;;;;;;;;;;;;;6.35;62.41;99810.97;5000798;28;2465;-87
2023/03/05 09:12:43;;;;;;;;;;;;;;;6.27;62.48;99805.88;5000589;28;3344;-86
2023/03/05 09:15:35;;;;;;;;;;;;;;;6.16;63.04;99798.50;5011992;28;3778;-87
2023/03/05 09:18:27;;;;;;;;;;;;;;;6.34;62.36;99791.44;5005467;28;3796;-87
2023/03/05 09:21:19;;;;;;;;;;;;;;;6.30;62.88;99797.44;5011861;28;4653;-87
2023/03/05 09:24:11;;;;;;;;;;;;;;;6.24;62.88;99788.41;5012506;28;3749;-87
2023/03/05 09:27:03;;;;;;;;;;;;;;;6.21;62.89;99775.44;5013048;28;4357;-88
2023/03/05 09:29:55;;;;;;;;;;;;;;;6.34;62.41;99780.75;5005980;28;3721;-86
2023/03/05 09:32:47;;;;;;;;;;;;;;;6.19;63.09;99780.19;5014169;28;5582;-86
2023/03/05 09:35:39;;;;;;;;;;;;;;;6.19;63.22;99779.34;5014887;28;3421;-86
2023/03/05 09:38:31;;;;;;;;;;;;;;;6.25;62.93;99787.34;5011193;28;3598;-88
2023/03/05 09:41:23;;;;;;;;;;;;;;;6.26;63.13;99780.16;5006050;28;2497;-88
2023/03/05 09:44:16;;;;;;;;;;;;;;;6.32;62.72;99782.81;5010009;28;3560;-87
2023/03/05 09:47:07;;;;;;;;;;;;;;;6.10;63.38;99784.09;5004365;28;3695;-86
2023/03/05 09:49:59;;;;;;;;;;;;;;;6.13;63.61;99776.47;5011699;28;3726;-88
2023/03/05 09:52:51;;;;;;;;;;;;;;;6.14;63.70;99772.78;5011549;28;3390;-89
2023/03/05 09:55:43;;;;;;;;;;;;;;;6.25;63.28;99767.81;5009539;28;990;-87
2023/03/05 09:58:35;;;;;;;;;;;;;;;6.22;63.67;99763.72;5008525;28;3722;-87
2023/03/05 10:01:28;;;;;;;;;;;;;;;6.18;63.89;99767.84;5009518;28;3777;-87
2023/03/05 10:04:20;;;;;;;;;;;;;;;6.10;63.89;99768.06;5009656;28;3651;-88
2023/03/05 10:07:12;;;;;;;;;;;;;;;6.16;63.50;99769.09;4979179;28;5546;-88
2023/03/05 10:10:03;;;;;;;;;;;;;;;5.98;64.20;99762.53;4985572;28;5487;-86
2023/03/05 10:12:56;;;;;;;;;;;;;;;5.96;64.57;99761.09;4975398;28;4140;-86
2023/03/05 10:15:50;;;;;;;;;;;;;;;6.03;64.08;99761.91;4997944;28;3455;-88
2023/03/05 10:18:42;;;;;;;;;;;;;;;6.02;64.25;99750.38;5010457;28;2371;-87
2023/03/05 10:21:34;;;;;;;;;;;;;;;6.01;64.30;99750.63;5012791;28;3740;-89
2023/03/05 10:24:26;;;;;;;;;;;;;;;6.02;64.54;99754.91;5013187;28;3810;-88
2023/03/05 10:27:18;;;;;;;;;;;;;;;6.00;64.34;99748.94;5011974;28;3756;-87
2023/03/05 10:30:10;;;;;;;;;;;;;;;5.93;64.60;99754.31;5009987;28;3795;-87
2023/03/05 10:33:02;;;;;;;;;;;;;;;5.96;64.69;99753.09;4993702;28;3738;-87
2023/03/05 10:35:54;;;;;;;;;;;;;;;5.96;64.98;99742.41;4987634;28;3497;-88
2023/03/05 10:38:46;;;;;;;;;;;;;;;6.00;64.57;99733.75;4988250;28;3215;-89
2023/03/05 10:41:38;;;;;;;;;;;;;;;6.06;64.30;99740.94;4990082;28;3691;-88
2023/03/05 10:44:30;;;;;;;;;;;;;;;6.08;64.46;99735.38;5006798;28;3557;-91
2023/03/05 10:47:22;;;;;;;;;;;;;;;6.06;64.43;99730.25;4987884;28;2995;-92
2023/03/05 10:50:14;;;;;;;;;;;;;;;6.09;64.37;99732.50;4993722;28;3375;-91
2023/03/05 10:53:06;;;;;;;;;;;;;;;6.08;64.39;99727.34;4988585;28;2853;-89
2023/03/05 10:55:58;;;;;;;;;;;;;;;6.01;64.61;99727.38;4991391;28;2767;-89
2023/03/05 10:58:51;;;;;;;;;;;;;;;6.10;63.98;99712.75;4989618;28;2608;-86
2023/03/05 11:01:43;;;;;;;;;;;;;;;6.09;64.66;99715.63;4987723;28;3685;-86
2023/03/05 11:04:36;;;;;;;;;;;;;;;6.08;64.66;99713.97;4987144;28;3060;-87
2023/03/05 11:07:27;;;;;;;;;;;;;;;6.05;64.68;99706.38;4985539;28;5475;-89
2023/03/05 11:10:20;;;;;;;;;;;;;;;6.06;64.96;99711.53;4988793;28;2662;-88
2023/03/05 11:13:12;;;;;;;;;;;;;;;6.04;65.00;99715.44;4988402;28;5558;-87
2023/03/05 11:16:04;;;;;;;;;;;;;;;6.11;64.95;99709.03;4975318;28;5693;-89
2023/03/05 11:18:56;;;;;;;;;;;;;;;6.13;64.55;99711.50;4987719;28;3901;-88
2023/03/05 11:21:48;;;;;;;;;;;;;;;6.14;64.92;99700.56;4986311;28;3552;-87
2023/03/05 11:24:34;;;;;;;;;;;;;;;6.11;64.78;99701.00;4989987;28;2688;-88
2023/03/05 11:27:22;;;;;;;;;;;;;;;6.13;64.90;99698.94;4989516;28;4171;-88
2023/03/05 11:30:05;;;;;;;;;;;;;;;6.11;65.01;99697.50;4986453;28;3010;-87
2023/03/05 11:32:32;;;;;;;;;;;;;;;6.13;64.87;99698.94;4985102;28;3223;-88
2023/03/05 11:34:59;;;;;;;;;;;;;;;6.16;64.94;99694.22;4985097;28;3605;-89
2023/03/05 11:37:25;;;;;;;;;;;;;;;6.15;65.21;99688.06;4979796;28;2536;-89
2023/03/05 11:39:53;;;;;;;;;;;;;;;6.17;64.94;99688.66;4968939;28;2643;-89
2023/03/05 11:42:24;;;;;;;;;;;;;;;6.22;65.04;99688.84;4994278;28;3724;-90
2023/03/05 11:44:50;;;;;;;;;;;;;;;6.16;65.29;99689.69;5001084;28;3745;-90
2023/03/05 11:47:17;;;;;;;;;;;;;;;6.17;65.15;99693.19;4984061;28;3656;-90
2023/03/05 11:49:44;;;;;;;;;;;;;;;6.18;64.97;99687.63;4986385;28;1572;-88
2023/03/05 11:52:10;;;;;;;;;;;;;;;6.23;65.26;99681.63;4985113;28;3880;-89
2023/03/05 11:54:37;;;;;;;;;;;;;;;6.28;65.03;99674.63;5002088;28;3673;-89
2023/03/05 11:57:04;;;;;;;;;;;;;;;6.22;65.31;99669.31;4971754;28;3485;-90
2023/03/05 11:59:30;;;;;;;;;;;;;;;6.32;65.16;99686.53;4979958;28;2686;-90
2023/03/05 12:01:57;;;;;;;;;;;;;;;6.28;65.03;99681.81;4968568;28;2725;-89
2023/03/05 12:04:24;;;;;;;;;;;;;;;6.26;65.27;99678.53;4967223;28;3355;-89
2023/03/05 12:06:51;;;;;;;;;;;;;;;6.26;65.52;99676.66;4968523;28;4381;-90
2023/03/05 12:09:18;;;;;;;;;;;;;;;6.30;65.22;99669.06;4968452;28;3524;-90
2023/03/05 12:11:44;;;;;;;;;;;;;;;6.29;65.47;99667.41;4990262;28;2675;-91
2023/03/05 12:14:11;;;;;;;;;;;;;;;6.28;65.74;99663.91;4969579;28;2622;-90
2023/03/05 12:16:38;;;;;;;;;;;;;;;6.31;65.65;99663.50;4991337;28;3632;-90
2023/03/05 12:19:04;;;;;;;;;;;;;;;6.26;65.54;99655.28;4969814;28;3424;-90
2023/03/05 12:21:32;;;;;;;;;;;;;;;6.29;65.84;99656.72;4972510;28;2672;-90
2023/03/05 12:24:00;;;;;;;;;;;;;;;6.32;65.62;99657.13;4989525;28;3475;-91
2023/03/05 12:26:27;;;;;;;;;;;;;;;6.31;65.57;99652.78;4987867;28;3609;-91
2023/03/05 12:28:53;;;;;;;;;;;;;;;6.35;65.50;99653.19;4970366;28;3459;-91
2023/03/05 12:31:21;;;;;;;;;;;;;;;6.39;65.56;99649.06;4973958;28;3974;-91
2023/03/05 12:33:47;;;;;;;;;;;;;;;6.33;65.69;99640.03;4991185;28;2789;-90
2023/03/05 12:36:14;;;;;;;;;;;;;;;6.29;66.04;99640.66;4970674;28;3434;-90
2023/03/05 12:38:41;;;;;;;;;;;;;;;6.35;66.15;99646.00;4988079;28;3355;-91
2023/03/05 12:41:08;;;;;;;;;;;;;;;6.34;65.80;99635.50;4982717;28;2926;-91
2023/03/05 12:43:35;;;;;;;;;;;;;;;6.35;65.88;99635.31;4985398;28;2556;-91
2023/03/05 12:46:02;;;;;;;;;;;;;;;6.35;66.08;99629.94;4971672;28;2471;-90
2023/03/05 12:51:36;;;;;;;;;;;;;;;6.39;66.25;99627.66;4978127;28;3386;-90
2023/03/05 12:54:03;;;;;;;;;;;;;;;6.40;65.88;99623.13;4999948;28;3774;-91
2023/03/05 12:56:31;;;;;;;;;;;;;;;6.41;66.19;99638.13;4988240;28;3653;-88
2023/03/05 12:58:58;;;;;;;;;;;;;;;6.43;66.16;99628.88;5002295;28;2828;-91
2023/03/05 13:01:25;;;;;;;;;;;;;;;6.41;66.37;99633.59;5002042;28;5781;-92
2023/03/05 13:03:51;;;;;;;;;;;;;;;6.44;66.58;99621.66;4989495;28;2143;-91
2023/03/05 13:06:18;;;;;;;;;;;;;;;6.46;66.62;99624.94;4989184;28;4959;-89
2023/03/05 13:08:44;;;;;;;;;;;;;;;6.43;66.69;99620.03;4986367;28;5663;-90
2023/03/05 13:11:11;;;;;;;;;;;;;;;6.45;66.38;99624.13;4988319;28;5501;-88
2023/03/05 13:13:38;;;;;;;;;;;;;;;6.46;66.25;99617.72;4986107;28;2580;-89
2023/03/05 13:16:04;;;;;;;;;;;;;;;6.47;66.44;99613.19;5006173;28;2438;-90
2023/03/05 13:18:31;;;;;;;;;;;;;;;6.48;66.42;99612.19;4983952;28;2388;-90
2023/03/05 13:20:58;;;;;;;;;;;;;;;6.47;66.48;99614.03;5007080;28;2290;-91
2023/03/05 13:23:25;;;;;;;;;;;;;;;6.51;66.72;99609.06;5005858;28;2721;-90
2023/03/05 13:25:51;;;;;;;;;;;;;;;6.51;66.84;99611.75;5005153;28;2272;-90
2023/03/05 13:28:18;;;;;;;;;;;;;;;6.50;66.74;99604.75;5002676;28;2511;-87
2023/03/05 13:30:45;;;;;;;;;;;;;;;6.54;66.65;99606.78;5005232;28;1995;-87
2023/03/05 13:33:12;;;;;;;;;;;;;;;6.54;66.74;99600.63;4985702;28;3482;-88
2023/03/05 13:35:39;;;;;;;;;;;;;;;6.54;66.47;99596.06;5006575;28;2351;-88
2023/03/05 13:38:05;;;;;;;;;;;;;;;6.51;66.75;99601.88;5001725;28;2112;-87
2023/03/05 13:40:32;;;;;;;;;;;;;;;6.52;66.59;99600.00;4977989;28;2372;-87
2023/03/05 13:42:58;;;;;;;;;;;;;;;6.55;66.62;99594.22;4998351;28;2886;-88
2023/03/05 13:45:25;;;;;;;;;;;;;;;6.59;66.35;99587.41;4986779;28;2324;-88
2023/03/05 13:47:51;;;;;;;;;;;;;;;6.58;66.62;99591.91;5003344;28;2260;-89
2023/03/05 13:50:18;;;;;;;;;;;;;;;6.59;66.87;99590.91;5001775;28;2327;-88
2023/03/05 13:52:44;;;;;;;;;;;;;;;6.65;66.48;99591.06;4979355;28;2693;-89
2023/03/05 13:55:11;;;;;;;;;;;;;;;6.66;66.85;99584.69;4994469;28;2638;-87
2023/03/05 13:57:37;;;;;;;;;;;;;;;6.69;66.86;99578.91;4997590;28;2467;-89
2023/03/05 14:00:04;;;;;;;;;;;;;;;6.65;67.01;99580.34;4976686;28;2831;-89
2023/03/05 14:02:31;;;;;;;;;;;;;;;6.68;67.01;99582.63;4983102;28;2406;-88
2023/03/05 14:04:57;;;;;;;;;;;;;;;6.68;66.92;99577.25;4981835;28;2645;-88
2023/03/05 14:07:25;;;;;;;;;;;;;;;6.72;66.84;99575.78;4998501;28;2362;-88
2023/03/05 14:09:52;;;;;;;;;;;;;;;6.72;67.08;99567.75;4984396;28;2438;-88